< < Back
Terminal Aerodrome Forecast


Current Version              Previous Versions:   1  2  3  4  5  6  7  8  9  

Terminal Aerodrome Forecast

133
FTUS42 KFFC 181122
TAFCSG
TAF
KCSG 181122Z 1812/1912 32003KT P6SM SCT150 BKN250
     FM181800 31005KT P6SM BKN060
     FM190100 34005KT P6SM SCT080 BKN150
     FM190900 01003KT P6SM SCT150=

Latest METAR

537
SAUS70 KWBC 181700 RRA
MTRCSG
METAR KCSG 181651Z 00000KT 10SM CLR 13/M01 A3017 RMK AO2 SLP215
T01281011


USA.gov is the U.S. government's official web portal to all federal, state and local government web resources and services.